sensor_id;sensor_type;location;lat;lon;timestamp;temperature;humidity
5962;DHT22;3007;50.770;0.250;2022-11-20T00:01:10;5.50;99.90
5962;DHT22;3007;50.770;0.250;2022-11-20T00:03:38;5.50;99.90
5962;DHT22;3007;50.770;0.250;2022-11-20T00:06:07;5.60;99.90
5962;DHT22;3007;50.770;0.250;2022-11-20T00:08:34;5.60;99.90
5962;DHT22;3007;50.770;0.250;2022-11-20T00:11:03;5.60;99.90
5962;DHT22;3007;50.770;0.250;2022-11-20T00:13:30;5.70;99.90
5962;DHT22;3007;50.770;0.250;2022-11-20T00:15:57;5.70;99.90
5962;DHT22;3007;50.770;0.250;2022-11-20T00:18:26;5.70;99.90
5962;DHT22;3007;50.770;0.250;2022-11-20T00:20:53;5.80;99.90
5962;DHT22;3007;50.770;0.250;2022-11-20T00:23:20;5.70;99.90
5962;DHT22;3007;50.770;0.250;2022-11-20T00:25:47;5.80;99.90
5962;DHT22;3007;50.770;0.250;2022-11-20T00:28:14;5.80;99.90
5962;DHT22;3007;50.770;0.250;2022-11-20T00:30:40;5.80;99.90
5962;DHT22;3007;50.770;0.250;2022-11-20T00:33:07;5.90;99.90
5962;DHT22;3007;50.770;0.250;2022-11-20T00:35:35;5.90;99.90
5962;DHT22;3007;50.770;0.250;2022-11-20T00:38:02;6.00;99.90
5962;DHT22;3007;50.770;0.250;2022-11-20T00:40:29;6.00;99.90
5962;DHT22;3007;50.770;0.250;2022-11-20T00:42:56;6.00;99.90
5962;DHT22;3007;50.770;0.250;2022-11-20T00:45:23;6.10;99.90
5962;DHT22;3007;50.770;0.250;2022-11-20T00:47:49;6.20;99.90
5962;DHT22;3007;50.770;0.250;2022-11-20T00:50:16;6.20;99.90
5962;DHT22;3007;50.770;0.250;2022-11-20T00:52:44;6.20;99.90
5962;DHT22;3007;50.770;0.250;2022-11-20T00:55:11;6.30;99.90
5962;DHT22;3007;50.770;0.250;2022-11-20T00:57:38;6.30;99.90
5962;DHT22;3007;50.770;0.250;2022-11-20T01:00:06;6.30;99.90
5962;DHT22;3007;50.770;0.250;2022-11-20T01:02:33;6.40;99.90
5962;DHT22;3007;50.770;0.250;2022-11-20T01:05:00;6.40;99.90
5962;DHT22;3007;50.770;0.250;2022-11-20T01:07:27;6.40;99.90
5962;DHT22;3007;50.770;0.250;2022-11-20T01:09:55;6.40;99.90
5962;DHT22;3007;50.770;0.250;2022-11-20T01:12:23;6.40;99.90
5962;DHT22;3007;50.770;0.250;2022-11-20T01:14:50;6.40;99.90
5962;DHT22;3007;50.770;0.250;2022-11-20T01:17:17;6.50;99.90
5962;DHT22;3007;50.770;0.250;2022-11-20T01:19:44;6.50;99.90
5962;DHT22;3007;50.770;0.250;2022-11-20T01:22:11;6.50;99.90
5962;DHT22;3007;50.770;0.250;2022-11-20T01:24:37;6.50;99.90
5962;DHT22;3007;50.770;0.250;2022-11-20T01:27:06;6.50;99.90
5962;DHT22;3007;50.770;0.250;2022-11-20T01:29:32;6.50;99.90
5962;DHT22;3007;50.770;0.250;2022-11-20T01:31:59;6.50;99.90
5962;DHT22;3007;50.770;0.250;2022-11-20T01:34:26;6.50;99.90
5962;DHT22;3007;50.770;0.250;2022-11-20T01:36:53;6.60;99.90
5962;DHT22;3007;50.770;0.250;2022-11-20T01:39:21;6.60;99.90
5962;DHT22;3007;50.770;0.250;2022-11-20T01:41:49;6.60;99.90
5962;DHT22;3007;50.770;0.250;2022-11-20T01:44:53;6.60;99.90
5962;DHT22;3007;50.770;0.250;2022-11-20T01:47:25;6.60;99.90
5962;DHT22;3007;50.770;0.250;2022-11-20T01:49:56;6.70;99.90
5962;DHT22;3007;50.770;0.250;2022-11-20T01:52:28;6.70;99.90
5962;DHT22;3007;50.770;0.250;2022-11-20T01:55:01;6.70;99.90
5962;DHT22;3007;50.770;0.250;2022-11-20T01:57:31;6.70;99.90
5962;DHT22;3007;50.770;0.250;2022-11-20T02:00:05;6.80;99.90
5962;DHT22;3007;50.770;0.250;2022-11-20T02:02:32;6.80;99.90
5962;DHT22;3007;50.770;0.250;2022-11-20T02:05:08;6.90;99.90
5962;DHT22;3007;50.770;0.250;2022-11-20T02:07:36;6.90;99.90
5962;DHT22;3007;50.770;0.250;2022-11-20T02:10:03;7.00;99.90
5962;DHT22;3007;50.770;0.250;2022-11-20T02:12:30;7.00;99.90
5962;DHT22;3007;50.770;0.250;2022-11-20T02:15:16;7.10;99.90
5962;DHT22;3007;50.770;0.250;2022-11-20T02:17:43;7.20;99.90
5962;DHT22;3007;50.770;0.250;2022-11-20T02:20:11;7.20;99.90
5962;DHT22;3007;50.770;0.250;2022-11-20T02:22:43;7.30;99.90
5962;DHT22;3007;50.770;0.250;2022-11-20T02:25:14;7.40;99.90
5962;DHT22;3007;50.770;0.250;2022-11-20T02:27:41;7.50;99.90
5962;DHT22;3007;50.770;0.250;2022-11-20T02:30:09;7.60;99.90
5962;DHT22;3007;50.770;0.250;2022-11-20T02:32:37;7.70;99.90
5962;DHT22;3007;50.770;0.250;2022-11-20T02:35:08;7.70;99.90
5962;DHT22;3007;50.770;0.250;2022-11-20T02:37:38;7.80;99.90
5962;DHT22;3007;50.770;0.250;2022-11-20T02:40:06;7.80;99.90
5962;DHT22;3007;50.770;0.250;2022-11-20T02:42:35;7.80;99.90
5962;DHT22;3007;50.770;0.250;2022-11-20T02:45:02;7.90;99.90
5962;DHT22;3007;50.770;0.250;2022-11-20T02:47:29;7.90;99.90
5962;DHT22;3007;50.770;0.250;2022-11-20T02:49:56;7.90;99.90
5962;DHT22;3007;50.770;0.250;2022-11-20T02:52:23;7.90;99.90
5962;DHT22;3007;50.770;0.250;2022-11-20T02:54:50;7.90;99.90
5962;DHT22;3007;50.770;0.250;2022-11-20T02:57:17;8.00;99.90
5962;DHT22;3007;50.770;0.250;2022-11-20T02:59:45;8.00;99.90
5962;DHT22;3007;50.770;0.250;2022-11-20T03:02:12;8.00;99.90
5962;DHT22;3007;50.770;0.250;2022-11-20T03:04:39;7.90;99.90
5962;DHT22;3007;50.770;0.250;2022-11-20T03:07:07;7.90;99.90
5962;DHT22;3007;50.770;0.250;2022-11-20T03:09:35;7.90;99.90
5962;DHT22;3007;50.770;0.250;2022-11-20T03:12:02;7.90;99.90
5962;DHT22;3007;50.770;0.250;2022-11-20T03:14:29;7.90;99.90
5962;DHT22;3007;50.770;0.250;2022-11-20T03:16:57;7.90;99.90
5962;DHT22;3007;50.770;0.250;2022-11-20T03:19:24;7.80;99.90
5962;DHT22;3007;50.770;0.250;2022-11-20T03:21:50;7.80;99.90
5962;DHT22;3007;50.770;0.250;2022-11-20T03:24:17;7.80;99.90
5962;DHT22;3007;50.770;0.250;2022-11-20T03:26:44;7.90;99.90
5962;DHT22;3007;50.770;0.250;2022-11-20T03:29:11;7.90;99.90
5962;DHT22;3007;50.770;0.250;2022-11-20T03:31:39;7.90;99.90
5962;DHT22;3007;50.770;0.250;2022-11-20T03:34:09;7.90;99.90
5962;DHT22;3007;50.770;0.250;2022-11-20T03:36:38;7.90;99.90
5962;DHT22;3007;50.770;0.250;2022-11-20T03:39:05;7.90;99.90
5962;DHT22;3007;50.770;0.250;2022-11-20T03:41:36;8.00;99.90
5962;DHT22;3007;50.770;0.250;2022-11-20T03:44:06;8.10;99.90
5962;DHT22;3007;50.770;0.250;2022-11-20T03:46:33;8.20;99.90
5962;DHT22;3007;50.770;0.250;2022-11-20T03:49:00;8.30;99.90
5962;DHT22;3007;50.770;0.250;2022-11-20T03:51:30;8.40;99.90
5962;DHT22;3007;50.770;0.250;2022-11-20T03:53:58;8.50;99.90
5962;DHT22;3007;50.770;0.250;2022-11-20T03:56:27;8.50;99.90
5962;DHT22;3007;50.770;0.250;2022-11-20T03:58:55;8.50;99.90
5962;DHT22;3007;50.770;0.250;2022-11-20T04:01:23;8.50;99.90
5962;DHT22;3007;50.770;0.250;2022-11-20T04:03:52;8.50;99.90
5962;DHT22;3007;50.770;0.250;2022-11-20T04:06:22;8.50;99.90
5962;DHT22;3007;50.770;0.250;2022-11-20T04:08:51;8.50;99.90
5962;DHT22;3007;50.770;0.250;2022-11-20T04:11:21;8.50;99.90
5962;DHT22;3007;50.770;0.250;2022-11-20T04:13:49;8.50;99.90
5962;DHT22;3007;50.770;0.250;2022-11-20T04:16:17;8.60;99.90
5962;DHT22;3007;50.770;0.250;2022-11-20T04:18:44;8.60;99.90
5962;DHT22;3007;50.770;0.250;2022-11-20T04:21:11;8.60;99.90
5962;DHT22;3007;50.770;0.250;2022-11-20T04:23:38;8.60;99.90
5962;DHT22;3007;50.770;0.250;2022-11-20T04:26:08;8.60;99.90
5962;DHT22;3007;50.770;0.250;2022-11-20T04:28:35;8.60;99.90
5962;DHT22;3007;50.770;0.250;2022-11-20T04:31:03;8.60;99.90
5962;DHT22;3007;50.770;0.250;2022-11-20T04:33:31;8.60;99.90
5962;DHT22;3007;50.770;0.250;2022-11-20T04:36:01;8.60;99.90
5962;DHT22;3007;50.770;0.250;2022-11-20T04:38:28;8.60;99.90
5962;DHT22;3007;50.770;0.250;2022-11-20T04:40:57;8.60;99.90
5962;DHT22;3007;50.770;0.250;2022-11-20T04:43:26;8.60;99.90
5962;DHT22;3007;50.770;0.250;2022-11-20T04:45:53;8.70;99.90
5962;DHT22;3007;50.770;0.250;2022-11-20T04:48:20;8.70;99.90
5962;DHT22;3007;50.770;0.250;2022-11-20T04:50:47;8.70;99.90
5962;DHT22;3007;50.770;0.250;2022-11-20T04:53:14;8.70;99.90
5962;DHT22;3007;50.770;0.250;2022-11-20T04:55:41;8.80;99.90
5962;DHT22;3007;50.770;0.250;2022-11-20T04:58:07;8.80;99.90
5962;DHT22;3007;50.770;0.250;2022-11-20T05:00:36;8.80;99.90
5962;DHT22;3007;50.770;0.250;2022-11-20T05:03:03;8.80;99.90
5962;DHT22;3007;50.770;0.250;2022-11-20T05:05:30;8.80;99.90
5962;DHT22;3007;50.770;0.250;2022-11-20T05:07:57;8.90;99.90
5962;DHT22;3007;50.770;0.250;2022-11-20T05:10:25;9.00;99.90
5962;DHT22;3007;50.770;0.250;2022-11-20T05:12:52;9.00;99.90
5962;DHT22;3007;50.770;0.250;2022-11-20T05:15:18;9.00;99.90
5962;DHT22;3007;50.770;0.250;2022-11-20T05:17:49;9.10;99.90
5962;DHT22;3007;50.770;0.250;2022-11-20T05:20:16;9.10;99.90
5962;DHT22;3007;50.770;0.250;2022-11-20T05:22:43;9.10;99.90
5962;DHT22;3007;50.770;0.250;2022-11-20T05:25:10;9.10;99.90
5962;DHT22;3007;50.770;0.250;2022-11-20T05:27:37;9.10;99.90
5962;DHT22;3007;50.770;0.250;2022-11-20T05:30:06;9.20;99.90
5962;DHT22;3007;50.770;0.250;2022-11-20T05:32:33;9.20;99.90
5962;DHT22;3007;50.770;0.250;2022-11-20T05:35:01;9.20;99.90
5962;DHT22;3007;50.770;0.250;2022-11-20T05:37:28;9.20;99.90
5962;DHT22;3007;50.770;0.250;2022-11-20T05:39:55;9.30;99.90
5962;DHT22;3007;50.770;0.250;2022-11-20T05:42:21;9.20;99.90
5962;DHT22;3007;50.770;0.250;2022-11-20T05:44:57;9.30;99.90
5962;DHT22;3007;50.770;0.250;2022-11-20T05:47:24;9.30;99.90
5962;DHT22;3007;50.770;0.250;2022-11-20T05:49:51;9.40;99.90
5962;DHT22;3007;50.770;0.250;2022-11-20T05:52:20;9.40;99.90
5962;DHT22;3007;50.770;0.250;2022-11-20T05:54:47;9.40;99.90
5962;DHT22;3007;50.770;0.250;2022-11-20T05:57:14;9.40;99.90
5962;DHT22;3007;50.770;0.250;2022-11-20T05:59:41;9.40;99.90
5962;DHT22;3007;50.770;0.250;2022-11-20T06:02:08;9.40;99.90
5962;DHT22;3007;50.770;0.250;2022-11-20T06:04:35;9.50;99.90
5962;DHT22;3007;50.770;0.250;2022-11-20T06:07:01;9.50;99.90
5962;DHT22;3007;50.770;0.250;2022-11-20T06:09:30;9.40;99.90
5962;DHT22;3007;50.770;0.250;2022-11-20T06:11:56;9.50;99.90
5962;DHT22;3007;50.770;0.250;2022-11-20T06:14:23;9.50;99.90
5962;DHT22;3007;50.770;0.250;2022-11-20T06:16:50;9.50;99.90
5962;DHT22;3007;50.770;0.250;2022-11-20T06:19:17;9.50;99.90
5962;DHT22;3007;50.770;0.250;2022-11-20T06:21:44;9.50;99.90
5962;DHT22;3007;50.770;0.250;2022-11-20T06:24:11;9.50;99.90
5962;DHT22;3007;50.770;0.250;2022-11-20T06:26:39;9.60;99.90
5962;DHT22;3007;50.770;0.250;2022-11-20T06:29:06;9.60;99.90
5962;DHT22;3007;50.770;0.250;2022-11-20T06:31:33;9.60;99.90
5962;DHT22;3007;50.770;0.250;2022-11-20T06:34:03;9.60;99.90
5962;DHT22;3007;50.770;0.250;2022-11-20T06:36:31;9.70;99.90
5962;DHT22;3007;50.770;0.250;2022-11-20T06:38:57;9.70;99.90
5962;DHT22;3007;50.770;0.250;2022-11-20T06:41:24;9.70;99.90
5962;DHT22;3007;50.770;0.250;2022-11-20T06:43:53;9.70;99.90
5962;DHT22;3007;50.770;0.250;2022-11-20T06:46:20;9.70;99.90
5962;DHT22;3007;50.770;0.250;2022-11-20T06:48:47;9.80;99.90
5962;DHT22;3007;50.770;0.250;2022-11-20T06:51:15;9.80;99.90
5962;DHT22;3007;50.770;0.250;2022-11-20T06:53:42;9.80;99.90
5962;DHT22;3007;50.770;0.250;2022-11-20T06:56:09;9.80;99.90
5962;DHT22;3007;50.770;0.250;2022-11-20T06:58:36;9.80;99.90
5962;DHT22;3007;50.770;0.250;2022-11-20T07:01:06;9.70;99.90
5962;DHT22;3007;50.770;0.250;2022-11-20T07:03:33;9.70;99.90
5962;DHT22;3007;50.770;0.250;2022-11-20T07:06:01;9.80;99.90
5962;DHT22;3007;50.770;0.250;2022-11-20T07:08:28;9.80;99.90
5962;DHT22;3007;50.770;0.250;2022-11-20T07:10:57;9.90;99.90
5962;DHT22;3007;50.770;0.250;2022-11-20T07:13:25;9.90;99.90
5962;DHT22;3007;50.770;0.250;2022-11-20T07:15:52;9.90;99.90
5962;DHT22;3007;50.770;0.250;2022-11-20T07:18:20;9.90;99.90
5962;DHT22;3007;50.770;0.250;2022-11-20T07:20:47;9.90;99.90
5962;DHT22;3007;50.770;0.250;2022-11-20T07:23:14;10.00;99.90
5962;DHT22;3007;50.770;0.250;2022-11-20T07:25:41;10.00;99.90
5962;DHT22;3007;50.770;0.250;2022-11-20T07:28:07;10.00;99.90
5962;DHT22;3007;50.770;0.250;2022-11-20T07:30:36;10.00;99.90
5962;DHT22;3007;50.770;0.250;2022-11-20T07:33:03;10.00;99.90
5962;DHT22;3007;50.770;0.250;2022-11-20T07:35:31;10.10;99.90
5962;DHT22;3007;50.770;0.250;2022-11-20T07:37:58;10.10;99.90
5962;DHT22;3007;50.770;0.250;2022-11-20T07:40:25;10.20;99.90
5962;DHT22;3007;50.770;0.250;2022-11-20T07:42:53;10.20;99.90
5962;DHT22;3007;50.770;0.250;2022-11-20T07:45:21;10.30;99.90
5962;DHT22;3007;50.770;0.250;2022-11-20T07:47:49;10.30;99.90
5962;DHT22;3007;50.770;0.250;2022-11-20T07:50:16;10.30;99.90
5962;DHT22;3007;50.770;0.250;2022-11-20T07:52:45;10.40;99.90
5962;DHT22;3007;50.770;0.250;2022-11-20T07:55:12;10.50;99.90
5962;DHT22;3007;50.770;0.250;2022-11-20T07:57:39;10.50;99.90
5962;DHT22;3007;50.770;0.250;2022-11-20T08:00:08;10.60;99.90
5962;DHT22;3007;50.770;0.250;2022-11-20T08:02:37;10.60;99.90
5962;DHT22;3007;50.770;0.250;2022-11-20T08:05:05;10.70;99.90
5962;DHT22;3007;50.770;0.250;2022-11-20T08:07:35;10.70;99.90
5962;DHT22;3007;50.770;0.250;2022-11-20T08:10:04;10.80;99.90
5962;DHT22;3007;50.770;0.250;2022-11-20T08:12:31;10.80;99.90
5962;DHT22;3007;50.770;0.250;2022-11-20T08:15:18;10.80;99.90
5962;DHT22;3007;50.770;0.250;2022-11-20T08:17:45;10.80;99.90
5962;DHT22;3007;50.770;0.250;2022-11-20T08:20:12;10.80;99.90
5962;DHT22;3007;50.770;0.250;2022-11-20T08:22:39;10.80;99.90
5962;DHT22;3007;50.770;0.250;2022-11-20T08:25:07;10.80;99.90
5962;DHT22;3007;50.770;0.250;2022-11-20T08:27:34;10.80;99.90
5962;DHT22;3007;50.770;0.250;2022-11-20T08:30:01;10.90;99.90
5962;DHT22;3007;50.770;0.250;2022-11-20T08:32:28;10.80;99.90
5962;DHT22;3007;50.770;0.250;2022-11-20T08:34:55;10.80;99.90
5962;DHT22;3007;50.770;0.250;2022-11-20T08:37:22;10.80;99.90
5962;DHT22;3007;50.770;0.250;2022-11-20T08:39:49;10.90;99.90
5962;DHT22;3007;50.770;0.250;2022-11-20T08:42:20;10.90;99.90
5962;DHT22;3007;50.770;0.250;2022-11-20T08:44:46;11.90;99.90
5962;DHT22;3007;50.770;0.250;2022-11-20T08:47:13;11.00;99.90
5962;DHT22;3007;50.770;0.250;2022-11-20T08:49:40;11.10;99.90
5962;DHT22;3007;50.770;0.250;2022-11-20T08:52:07;11.20;99.90
5962;DHT22;3007;50.770;0.250;2022-11-20T08:54:34;11.10;99.90
5962;DHT22;3007;50.770;0.250;2022-11-20T08:57:00;11.10;99.90
5962;DHT22;3007;50.770;0.250;2022-11-20T08:59:29;10.90;99.90
5962;DHT22;3007;50.770;0.250;2022-11-20T09:01:56;10.80;99.90
5962;DHT22;3007;50.770;0.250;2022-11-20T09:04:24;10.70;99.90
5962;DHT22;3007;50.770;0.250;2022-11-20T09:06:50;10.60;99.90
5962;DHT22;3007;50.770;0.250;2022-11-20T09:09:17;10.50;99.90
5962;DHT22;3007;50.770;0.250;2022-11-20T09:11:44;10.40;99.90
5962;DHT22;3007;50.770;0.250;2022-11-20T09:14:11;10.30;99.90
5962;DHT22;3007;50.770;0.250;2022-11-20T09:16:39;10.30;99.90
5962;DHT22;3007;50.770;0.250;2022-11-20T09:19:06;10.20;99.90
5962;DHT22;3007;50.770;0.250;2022-11-20T09:21:33;10.20;99.90
5962;DHT22;3007;50.770;0.250;2022-11-20T09:24:00;10.10;99.90
5962;DHT22;3007;50.770;0.250;2022-11-20T09:26:27;10.10;99.90
5962;DHT22;3007;50.770;0.250;2022-11-20T09:28:54;10.10;99.90
5962;DHT22;3007;50.770;0.250;2022-11-20T09:31:23;10.00;99.90
5962;DHT22;3007;50.770;0.250;2022-11-20T09:33:51;10.00;99.90
5962;DHT22;3007;50.770;0.250;2022-11-20T09:36:18;10.00;99.90
5962;DHT22;3007;50.770;0.250;2022-11-20T09:38:45;10.00;99.90
5962;DHT22;3007;50.770;0.250;2022-11-20T09:41:27;10.10;99.90
5962;DHT22;3007;50.770;0.250;2022-11-20T09:44:05;10.10;99.90
5962;DHT22;3007;50.770;0.250;2022-11-20T09:46:40;10.10;99.90
5962;DHT22;3007;50.770;0.250;2022-11-20T09:49:23;10.10;99.90
5962;DHT22;3007;50.770;0.250;2022-11-20T09:51:58;10.20;99.90
5962;DHT22;3007;50.770;0.250;2022-11-20T09:54:29;10.10;99.90
5962;DHT22;3007;50.770;0.250;2022-11-20T09:57:00;10.10;99.90
5962;DHT22;3007;50.770;0.250;2022-11-20T09:59:36;10.10;99.90
5962;DHT22;3007;50.770;0.250;2022-11-20T10:02:15;10.00;99.90
5962;DHT22;3007;50.770;0.250;2022-11-20T10:04:47;10.00;99.90
5962;DHT22;3007;50.770;0.250;2022-11-20T10:07:19;9.90;99.90
5962;DHT22;3007;50.770;0.250;2022-11-20T10:09:52;9.90;99.90
5962;DHT22;3007;50.770;0.250;2022-11-20T10:12:25;9.90;99.90
5962;DHT22;3007;50.770;0.250;2022-11-20T10:15:05;9.90;99.90
5962;DHT22;3007;50.770;0.250;2022-11-20T10:20:40;10.00;99.90
5962;DHT22;3007;50.770;0.250;2022-11-20T10:23:28;10.00;99.90
5962;DHT22;3007;50.770;0.250;2022-11-20T10:26:02;10.10;99.90
5962;DHT22;3007;50.770;0.250;2022-11-20T10:28:47;10.20;99.90
5962;DHT22;3007;50.770;0.250;2022-11-20T10:31:25;10.10;99.90
5962;DHT22;3007;50.770;0.250;2022-11-20T10:33:54;10.10;99.90
5962;DHT22;3007;50.770;0.250;2022-11-20T10:36:27;10.10;99.90
5962;DHT22;3007;50.770;0.250;2022-11-20T10:38:59;10.00;99.90
5962;DHT22;3007;50.770;0.250;2022-11-20T10:41:30;9.90;99.90
5962;DHT22;3007;50.770;0.250;2022-11-20T10:44:03;9.90;99.90
5962;DHT22;3007;50.770;0.250;2022-11-20T10:46:37;9.80;99.90
5962;DHT22;3007;50.770;0.250;2022-11-20T10:49:12;9.80;99.90
5962;DHT22;3007;50.770;0.250;2022-11-20T10:51:52;9.70;99.90
5962;DHT22;3007;50.770;0.250;2022-11-20T10:54:32;9.70;99.90
5962;DHT22;3007;50.770;0.250;2022-11-20T10:57:10;9.70;99.90
5962;DHT22;3007;50.770;0.250;2022-11-20T11:00:01;9.70;99.90
5962;DHT22;3007;50.770;0.250;2022-11-20T11:02:34;9.70;99.90
5962;DHT22;3007;50.770;0.250;2022-11-20T11:05:11;9.70;99.90
5962;DHT22;3007;50.770;0.250;2022-11-20T11:07:40;9.70;99.90
5962;DHT22;3007;50.770;0.250;2022-11-20T11:10:15;9.70;99.90
5962;DHT22;3007;50.770;0.250;2022-11-20T11:12:45;9.70;99.90
5962;DHT22;3007;50.770;0.250;2022-11-20T11:15:15;9.70;99.90
5962;DHT22;3007;50.770;0.250;2022-11-20T11:17:50;9.80;99.90
5962;DHT22;3007;50.770;0.250;2022-11-20T11:20:19;10.00;99.90
5962;DHT22;3007;50.770;0.250;2022-11-20T11:22:49;10.10;99.90
5962;DHT22;3007;50.770;0.250;2022-11-20T11:25:28;10.20;99.90
5962;DHT22;3007;50.770;0.250;2022-11-20T11:27:58;10.30;99.90
5962;DHT22;3007;50.770;0.250;2022-11-20T11:30:27;10.40;99.90
5962;DHT22;3007;50.770;0.250;2022-11-20T11:33:06;10.40;99.90
5962;DHT22;3007;50.770;0.250;2022-11-20T11:35:44;10.50;99.90
5962;DHT22;3007;50.770;0.250;2022-11-20T11:38:15;10.40;99.90
5962;DHT22;3007;50.770;0.250;2022-11-20T11:40:43;10.40;99.90
5962;DHT22;3007;50.770;0.250;2022-11-20T11:43:18;10.40;99.90
5962;DHT22;3007;50.770;0.250;2022-11-20T11:46:06;10.40;99.90
5962;DHT22;3007;50.770;0.250;2022-11-20T11:48:39;10.30;99.90
5962;DHT22;3007;50.770;0.250;2022-11-20T11:51:08;10.30;99.90
5962;DHT22;3007;50.770;0.250;2022-11-20T11:53:41;10.30;99.90
5962;DHT22;3007;50.770;0.250;2022-11-20T11:56:10;10.20;99.90
5962;DHT22;3007;50.770;0.250;2022-11-20T11:58:43;10.20;99.90
5962;DHT22;3007;50.770;0.250;2022-11-20T12:01:22;10.20;99.90
5962;DHT22;3007;50.770;0.250;2022-11-20T12:03:58;10.20;99.90
5962;DHT22;3007;50.770;0.250;2022-11-20T12:06:28;10.10;99.90
5962;DHT22;3007;50.770;0.250;2022-11-20T12:09:02;10.10;99.90
5962;DHT22;3007;50.770;0.250;2022-11-20T12:11:35;10.10;99.90
5962;DHT22;3007;50.770;0.250;2022-11-20T12:14:11;10.00;99.90
5962;DHT22;3007;50.770;0.250;2022-11-20T12:16:40;10.00;99.90
5962;DHT22;3007;50.770;0.250;2022-11-20T12:19:10;10.00;99.90
5962;DHT22;3007;50.770;0.250;2022-11-20T12:21:46;10.00;99.90
5962;DHT22;3007;50.770;0.250;2022-11-20T12:24:40;9.90;99.90
5962;DHT22;3007;50.770;0.250;2022-11-20T12:27:26;9.90;99.90
5962;DHT22;3007;50.770;0.250;2022-11-20T12:30:01;9.90;99.90
5962;DHT22;3007;50.770;0.250;2022-11-20T12:32:51;9.90;99.90
5962;DHT22;3007;50.770;0.250;2022-11-20T12:35:46;9.90;99.90
5962;DHT22;3007;50.770;0.250;2022-11-20T12:38:31;9.80;99.90
5962;DHT22;3007;50.770;0.250;2022-11-20T12:41:07;9.80;99.90
5962;DHT22;3007;50.770;0.250;2022-11-20T12:43:45;9.80;99.90
5962;DHT22;3007;50.770;0.250;2022-11-20T12:46:35;9.70;99.90
5962;DHT22;3007;50.770;0.250;2022-11-20T12:49:24;9.80;99.90
5962;DHT22;3007;50.770;0.250;2022-11-20T12:52:10;9.80;99.90
5962;DHT22;3007;50.770;0.250;2022-11-20T12:54:50;9.80;99.90
5962;DHT22;3007;50.770;0.250;2022-11-20T12:57:29;9.80;99.90
5962;DHT22;3007;50.770;0.250;2022-11-20T13:00:11;9.80;99.90
5962;DHT22;3007;50.770;0.250;2022-11-20T13:05:50;9.90;99.90
5962;DHT22;3007;50.770;0.250;2022-11-20T13:08:23;9.90;99.90
5962;DHT22;3007;50.770;0.250;2022-11-20T13:10:57;9.90;99.90
5962;DHT22;3007;50.770;0.250;2022-11-20T13:13:30;9.90;99.90
5962;DHT22;3007;50.770;0.250;2022-11-20T13:16:04;9.90;99.90
5962;DHT22;3007;50.770;0.250;2022-11-20T13:18:37;9.90;99.90
5962;DHT22;3007;50.770;0.250;2022-11-20T13:21:14;9.90;99.90
5962;DHT22;3007;50.770;0.250;2022-11-20T13:23:41;9.90;99.90
5962;DHT22;3007;50.770;0.250;2022-11-20T13:26:16;9.90;99.90
5962;DHT22;3007;50.770;0.250;2022-11-20T13:28:46;9.90;99.90
5962;DHT22;3007;50.770;0.250;2022-11-20T13:31:33;10.00;99.90
5962;DHT22;3007;50.770;0.250;2022-11-20T13:34:02;10.00;99.90
5962;DHT22;3007;50.770;0.250;2022-11-20T13:36:30;10.00;99.90
5962;DHT22;3007;50.770;0.250;2022-11-20T13:38:59;10.00;99.90
5962;DHT22;3007;50.770;0.250;2022-11-20T13:41:27;10.00;99.90
5962;DHT22;3007;50.770;0.250;2022-11-20T13:44:04;9.90;99.90
5962;DHT22;3007;50.770;0.250;2022-11-20T13:46:37;9.90;99.90
5962;DHT22;3007;50.770;0.250;2022-11-20T13:49:08;9.90;99.90
5962;DHT22;3007;50.770;0.250;2022-11-20T13:51:42;9.90;99.90
5962;DHT22;3007;50.770;0.250;2022-11-20T14:00:16;10.00;99.90
5962;DHT22;3007;50.770;0.250;2022-11-20T14:02:46;10.10;99.90
5962;DHT22;3007;50.770;0.250;2022-11-20T14:05:20;10.10;99.90
5962;DHT22;3007;50.770;0.250;2022-11-20T14:07:47;10.10;99.90
5962;DHT22;3007;50.770;0.250;2022-11-20T14:10:24;10.10;99.90
5962;DHT22;3007;50.770;0.250;2022-11-20T14:12:51;10.10;99.90
5962;DHT22;3007;50.770;0.250;2022-11-20T14:15:28;10.10;99.90
5962;DHT22;3007;50.770;0.250;2022-11-20T14:17:55;10.10;99.90
5962;DHT22;3007;50.770;0.250;2022-11-20T14:20:24;10.10;99.90
5962;DHT22;3007;50.770;0.250;2022-11-20T14:22:53;10.10;99.90
5962;DHT22;3007;50.770;0.250;2022-11-20T14:25:21;10.10;99.90
5962;DHT22;3007;50.770;0.250;2022-11-20T14:27:53;10.10;99.90
5962;DHT22;3007;50.770;0.250;2022-11-20T14:30:22;10.00;99.90
5962;DHT22;3007;50.770;0.250;2022-11-20T14:32:53;10.00;99.90
5962;DHT22;3007;50.770;0.250;2022-11-20T14:35:24;9.90;99.90
5962;DHT22;3007;50.770;0.250;2022-11-20T14:37:57;9.90;99.90
5962;DHT22;3007;50.770;0.250;2022-11-20T14:40:27;9.80;99.90
5962;DHT22;3007;50.770;0.250;2022-11-20T14:42:56;9.70;99.90
5962;DHT22;3007;50.770;0.250;2022-11-20T14:45:24;9.70;99.90
5962;DHT22;3007;50.770;0.250;2022-11-20T14:47:54;9.80;99.90
5962;DHT22;3007;50.770;0.250;2022-11-20T14:50:24;9.80;99.90
5962;DHT22;3007;50.770;0.250;2022-11-20T14:52:53;9.90;99.90
5962;DHT22;3007;50.770;0.250;2022-11-20T14:55:30;9.90;99.90
5962;DHT22;3007;50.770;0.250;2022-11-20T14:57:59;10.00;99.90
5962;DHT22;3007;50.770;0.250;2022-11-20T15:00:27;10.10;99.90
5962;DHT22;3007;50.770;0.250;2022-11-20T15:02:55;10.10;99.90
5962;DHT22;3007;50.770;0.250;2022-11-20T15:05:23;10.10;99.90
5962;DHT22;3007;50.770;0.250;2022-11-20T15:07:52;10.10;99.90
5962;DHT22;3007;50.770;0.250;2022-11-20T15:10:30;10.10;99.90
5962;DHT22;3007;50.770;0.250;2022-11-20T15:13:00;10.10;99.90
5962;DHT22;3007;50.770;0.250;2022-11-20T15:15:30;10.10;99.90
5962;DHT22;3007;50.770;0.250;2022-11-20T15:18:00;10.00;99.90
5962;DHT22;3007;50.770;0.250;2022-11-20T15:20:30;10.00;99.90
5962;DHT22;3007;50.770;0.250;2022-11-20T15:22:57;10.00;99.90
5962;DHT22;3007;50.770;0.250;2022-11-20T15:25:24;10.10;99.90
5962;DHT22;3007;50.770;0.250;2022-11-20T15:27:56;10.10;99.90
5962;DHT22;3007;50.770;0.250;2022-11-20T15:30:23;10.50;99.90
5962;DHT22;3007;50.770;0.250;2022-11-20T15:32:50;10.00;99.90
5962;DHT22;3007;50.770;0.250;2022-11-20T15:35:19;9.90;99.90
5962;DHT22;3007;50.770;0.250;2022-11-20T15:37:46;9.90;99.90
5962;DHT22;3007;50.770;0.250;2022-11-20T15:40:13;10.00;99.90
5962;DHT22;3007;50.770;0.250;2022-11-20T15:42:39;10.00;99.90
5962;DHT22;3007;50.770;0.250;2022-11-20T15:45:29;10.00;99.90
5962;DHT22;3007;50.770;0.250;2022-11-20T15:47:56;10.10;99.90
5962;DHT22;3007;50.770;0.250;2022-11-20T15:50:29;10.00;99.90
5962;DHT22;3007;50.770;0.250;2022-11-20T15:52:56;10.00;99.90
5962;DHT22;3007;50.770;0.250;2022-11-20T15:55:24;9.90;99.90
5962;DHT22;3007;50.770;0.250;2022-11-20T15:57:51;9.80;99.90
5962;DHT22;3007;50.770;0.250;2022-11-20T16:00:18;9.70;99.90
5962;DHT22;3007;50.770;0.250;2022-11-20T16:02:45;9.60;99.90
5962;DHT22;3007;50.770;0.250;2022-11-20T16:05:12;9.60;99.90
5962;DHT22;3007;50.770;0.250;2022-11-20T16:07:41;9.50;99.90
5962;DHT22;3007;50.770;0.250;2022-11-20T16:10:08;9.50;99.90
5962;DHT22;3007;50.770;0.250;2022-11-20T16:12:35;9.40;99.90
5962;DHT22;3007;50.770;0.250;2022-11-20T16:15:20;9.40;99.90
5962;DHT22;3007;50.770;0.250;2022-11-20T16:18:04;9.30;99.90
5962;DHT22;3007;50.770;0.250;2022-11-20T16:20:31;9.20;99.90
5962;DHT22;3007;50.770;0.250;2022-11-20T16:22:59;9.30;99.90
5962;DHT22;3007;50.770;0.250;2022-11-20T16:25:27;9.20;99.90
5962;DHT22;3007;50.770;0.250;2022-11-20T16:27:53;9.20;99.90
5962;DHT22;3007;50.770;0.250;2022-11-20T16:30:20;9.20;99.90
5962;DHT22;3007;50.770;0.250;2022-11-20T16:32:47;9.20;99.90
5962;DHT22;3007;50.770;0.250;2022-11-20T16:35:14;9.20;99.90
5962;DHT22;3007;50.770;0.250;2022-11-20T16:37:41;9.20;99.90
5962;DHT22;3007;50.770;0.250;2022-11-20T16:40:11;9.30;99.90
5962;DHT22;3007;50.770;0.250;2022-11-20T16:42:38;9.40;99.90